^^
Station Historical Data
Daily Summary for April 7, 2017 Units:  Both    English   Metric
« Previous Day
Next Day »
Daily Weekly Monthly Yearly Custom
  High: Low: Average:
Temperature: 84.7 °F /  29.3 °C 54.1 °F /  12.3 °C 68.4 °F /  20.2 °C
Dew Point: 46.2 °F /  7.9 °C 38.7 °F /  3.7 °C 41.8 °F /  5.4 °C
Humidity: 62% 22% 40%
Wind Speed: 8.9mph /  14.3km/h - 1.1mph /  1.8km/h
Wind Gust: 13.0mph /  20.9km/h - -
Wind- - SSW
Pressure: 30.26 in /  1024.6 hPa 30.12 in /  1019.9 hPa -
Precipitation: 0.00 in /  0 mm    
Historical Graphs
 
 
Tabular Data for April 7, 2017
Time Temperature Dew Point Pressure Wind Wind Speed Wind Gust Humidity Rainfall Rate (Hourly) solar Conditions
00:03 59.7 °F /  15.4 °C 38.8 °F /  3.8 °C 30.24in /  1023.9hPa Calm     46% 0.00in /  0mm 0.0 W/m2
00:09 59.7 °F /  15.4 °C 38.8 °F /  3.8 °C 30.24in /  1023.9hPa Calm     46% 0.00in /  0mm 0.0 W/m2
00:15 59.7 °F /  15.4 °C 38.8 °F /  3.8 °C 30.24in /  1023.9hPa ESE 2.0mph /  3.2km/h 2.0mph /  3.2km/h 46% 0.00in /  0mm 0.0 W/m2
00:21 59.5 °F /  15.3 °C 38.7 °F /  3.7 °C 30.24in /  1023.9hPa Calm   1.0mph /  1.6km/h 46% 0.00in /  0mm 0.0 W/m2
00:28 59.4 °F /  15.2 °C 39.2 °F /  4 °C 30.24in /  1023.9hPa Calm   1.0mph /  1.6km/h 47% 0.00in /  0mm 0.0 W/m2
00:34 59.2 °F /  15.1 °C 39.0 °F /  3.9 °C 30.23in /  1023.6hPa Calm   2.0mph /  3.2km/h 47% 0.00in /  0mm 0.0 W/m2
00:38 59.2 °F /  15.1 °C 39.0 °F /  3.9 °C 30.23in /  1023.6hPa East 0.9mph /  1.4km/h 2.0mph /  3.2km/h 47% 0.00in /  0mm 0.0 W/m2
00:44 59.2 °F /  15.1 °C 39.0 °F /  3.9 °C 30.23in /  1023.6hPa Calm   1.0mph /  1.6km/h 47% 0.00in /  0mm 0.0 W/m2
00:50 59.0 °F /  15 °C 38.8 °F /  3.8 °C 30.23in /  1023.6hPa Calm   1.0mph /  1.6km/h 47% 0.00in /  0mm 0.0 W/m2
00:56 58.8 °F /  14.9 °C 39.2 °F /  4 °C 30.23in /  1023.6hPa Calm     48% 0.00in /  0mm 0.0 W/m2
01:02 58.8 °F /  14.9 °C 39.2 °F /  4 °C 30.23in /  1023.6hPa Calm     48% 0.00in /  0mm 0.0 W/m2
01:09 58.8 °F /  14.9 °C 39.2 °F /  4 °C 30.22in /  1023.2hPa Calm   1.0mph /  1.6km/h 48% 0.00in /  0mm 0.0 W/m2
01:15 58.6 °F /  14.8 °C 39.6 °F /  4.2 °C 30.22in /  1023.2hPa Calm   5.0mph /  8km/h 49% 0.00in /  0mm 0.0 W/m2
01:21 58.5 °F /  14.7 °C 39.4 °F /  4.1 °C 30.22in /  1023.2hPa Calm     49% 0.00in /  0mm 0.0 W/m2
01:27 58.5 °F /  14.7 °C 39.4 °F /  4.1 °C 30.23in /  1023.6hPa Calm   1.0mph /  1.6km/h 49% 0.00in /  0mm 0.0 W/m2
01:33 58.1 °F /  14.5 °C 39.6 °F /  4.2 °C 30.22in /  1023.2hPa Calm   1.0mph /  1.6km/h 50% 0.00in /  0mm 0.0 W/m2
01:39 57.9 °F /  14.4 °C 39.4 °F /  4.1 °C 30.22in /  1023.2hPa Calm   1.0mph /  1.6km/h 50% 0.00in /  0mm 0.0 W/m2
01:45 57.7 °F /  14.3 °C 39.2 °F /  4 °C 30.22in /  1023.2hPa NE 0.9mph /  1.4km/h 3.0mph /  4.8km/h 50% 0.00in /  0mm 0.0 W/m2
01:52 57.6 °F /  14.2 °C 39.6 °F /  4.2 °C 30.22in /  1023.2hPa ESE 0.9mph /  1.4km/h 1.0mph /  1.6km/h 51% 0.00in /  0mm 0.0 W/m2
01:58 57.4 °F /  14.1 °C 39.4 °F /  4.1 °C 30.22in /  1023.2hPa Calm   2.0mph /  3.2km/h 51% 0.00in /  0mm 0.0 W/m2
02:04 57.2 °F /  14 °C 39.7 °F /  4.3 °C 30.22in /  1023.2hPa Calm   4.0mph /  6.4km/h 52% 0.00in /  0mm 0.0 W/m2
02:10 57.0 °F /  13.9 °C 39.6 °F /  4.2 °C 30.21in /  1022.9hPa Calm     52% 0.00in /  0mm 0.0 W/m2
02:16 57.0 °F /  13.9 °C 39.6 °F /  4.2 °C 30.22in /  1023.2hPa Calm   1.0mph /  1.6km/h 52% 0.00in /  0mm 0.0 W/m2
02:22 57.0 °F /  13.9 °C 39.6 °F /  4.2 °C 30.21in /  1022.9hPa Calm   1.0mph /  1.6km/h 52% 0.00in /  0mm 0.0 W/m2
02:28 57.0 °F /  13.9 °C 40.1 °F /  4.5 °C 30.22in /  1023.2hPa Calm     53% 0.00in /  0mm 0.0 W/m2
02:34 56.8 °F /  13.8 °C 39.9 °F /  4.4 °C 30.22in /  1023.2hPa Calm   1.0mph /  1.6km/h 53% 0.00in /  0mm 0.0 W/m2
02:41 56.7 °F /  13.7 °C 39.7 °F /  4.3 °C 30.21in /  1022.9hPa Calm     53% 0.00in /  0mm 0.0 W/m2
02:47 56.7 °F /  13.7 °C 40.3 °F /  4.6 °C 30.22in /  1023.2hPa Calm   1.0mph /  1.6km/h 54% 0.00in /  0mm 0.0 W/m2
02:53 56.5 °F /  13.6 °C 40.1 °F /  4.5 °C 30.21in /  1022.9hPa Calm     54% 0.00in /  0mm 0.0 W/m2
02:59 56.5 °F /  13.6 °C 40.1 °F /  4.5 °C 30.21in /  1022.9hPa Calm   1.0mph /  1.6km/h 54% 0.00in /  0mm 0.0 W/m2
03:05 56.5 °F /  13.6 °C 40.1 °F /  4.5 °C 30.21in /  1022.9hPa Calm   2.0mph /  3.2km/h 54% 0.00in /  0mm 0.0 W/m2
03:11 56.5 °F /  13.6 °C 40.1 °F /  4.5 °C 30.21in /  1022.9hPa ESE 0.9mph /  1.4km/h 2.0mph /  3.2km/h 54% 0.00in /  0mm 0.0 W/m2
03:17 56.5 °F /  13.6 °C 40.1 °F /  4.5 °C 30.21in /  1022.9hPa Calm   2.0mph /  3.2km/h 54% 0.00in /  0mm 0.0 W/m2
03:24 56.5 °F /  13.6 °C 40.5 °F /  4.7 °C 30.21in /  1022.9hPa Calm   1.0mph /  1.6km/h 55% 0.00in /  0mm 0.0 W/m2
03:30 56.3 °F /  13.5 °C 40.3 °F /  4.6 °C 30.21in /  1022.9hPa Calm   1.0mph /  1.6km/h 55% 0.00in /  0mm 0.0 W/m2
03:36 56.1 °F /  13.4 °C 40.1 °F /  4.5 °C 30.21in /  1022.9hPa Calm   1.0mph /  1.6km/h 55% 0.00in /  0mm 0.0 W/m2
03:42 56.1 °F /  13.4 °C 40.6 °F /  4.8 °C 30.21in /  1022.9hPa Calm     56% 0.00in /  0mm 0.0 W/m2
03:48 56.1 °F /  13.4 °C 40.6 °F /  4.8 °C 30.21in /  1022.9hPa Calm   1.0mph /  1.6km/h 56% 0.00in /  0mm 0.0 W/m2
03:54 55.9 °F /  13.3 °C 40.5 °F /  4.7 °C 30.21in /  1022.9hPa Calm     56% 0.00in /  0mm 0.0 W/m2
04:00 55.8 °F /  13.2 °C 40.8 °F /  4.9 °C 30.21in /  1022.9hPa East 0.9mph /  1.4km/h 2.0mph /  3.2km/h 57% 0.00in /  0mm 0.0 W/m2
04:07 55.8 °F /  13.2 °C 40.8 °F /  4.9 °C 30.21in /  1022.9hPa Calm   1.0mph /  1.6km/h 57% 0.00in /  0mm 0.0 W/m2
04:13 55.6 °F /  13.1 °C 40.6 °F /  4.8 °C 30.21in /  1022.9hPa ESE 0.9mph /  1.4km/h 3.0mph /  4.8km/h 57% 0.00in /  0mm 0.0 W/m2
04:19 55.6 °F /  13.1 °C 40.6 °F /  4.8 °C 30.21in /  1022.9hPa ESE 0.9mph /  1.4km/h 3.0mph /  4.8km/h 57% 0.00in /  0mm 0.0 W/m2
04:25 55.6 °F /  13.1 °C 41.0 °F /  5 °C 30.21in /  1022.9hPa Calm     58% 0.00in /  0mm 0.0 W/m2
04:31 55.4 °F /  13 °C 40.8 °F /  4.9 °C 30.21in /  1022.9hPa Calm     58% 0.00in /  0mm 0.0 W/m2
04:37 55.4 °F /  13 °C 40.8 °F /  4.9 °C 30.21in /  1022.9hPa ENE 0.9mph /  1.4km/h 4.0mph /  6.4km/h 58% 0.00in /  0mm 0.0 W/m2
04:43 55.2 °F /  12.9 °C 40.6 °F /  4.8 °C 30.21in /  1022.9hPa Calm   1.0mph /  1.6km/h 58% 0.00in /  0mm 0.0 W/m2
04:50 55.2 °F /  12.9 °C 40.6 °F /  4.8 °C 30.21in /  1022.9hPa Calm   2.0mph /  3.2km/h 58% 0.00in /  0mm 0.0 W/m2
04:56 55.2 °F /  12.9 °C 40.6 °F /  4.8 °C 30.22in /  1023.2hPa Calm   2.0mph /  3.2km/h 58% 0.00in /  0mm 0.0 W/m2
05:02 55.2 °F /  12.9 °C 41.2 °F /  5.1 °C 30.21in /  1022.9hPa Calm   3.0mph /  4.8km/h 59% 0.00in /  0mm 0.0 W/m2
05:08 55.0 °F /  12.8 °C 41.0 °F /  5 °C 30.21in /  1022.9hPa Calm   2.0mph /  3.2km/h 59% 0.00in /  0mm 0.0 W/m2
05:14 54.9 °F /  12.7 °C 40.8 °F /  4.9 °C 30.21in /  1022.9hPa Calm   3.0mph /  4.8km/h 59% 0.00in /  0mm 0.0 W/m2
05:20 54.9 °F /  12.7 °C 40.8 °F /  4.9 °C 30.21in /  1022.9hPa ESE 0.9mph /  1.4km/h 1.0mph /  1.6km/h 59% 0.00in /  0mm 0.0 W/m2
05:26 54.9 °F /  12.7 °C 40.8 °F /  4.9 °C 30.21in /  1022.9hPa East 0.9mph /  1.4km/h 2.0mph /  3.2km/h 59% 0.00in /  0mm 0.0 W/m2
05:32 54.9 °F /  12.7 °C 40.8 °F /  4.9 °C 30.22in /  1023.2hPa Calm     59% 0.00in /  0mm 0.0 W/m2
05:39 54.7 °F /  12.6 °C 41.0 °F /  5 °C 30.22in /  1023.2hPa Calm     60% 0.00in /  0mm 0.0 W/m2
05:45 54.7 °F /  12.6 °C 41.0 °F /  5 °C 30.22in /  1023.2hPa Calm     60% 0.00in /  0mm 0.0 W/m2
05:51 54.5 °F /  12.5 °C 40.8 °F /  4.9 °C 30.22in /  1023.2hPa Calm     60% 0.00in /  0mm 0.0 W/m2
05:57 54.3 °F /  12.4 °C 41.2 °F /  5.1 °C 30.22in /  1023.2hPa Calm   2.0mph /  3.2km/h 61% 0.00in /  0mm 0.0 W/m2
06:03 54.1 °F /  12.3 °C 41.4 °F /  5.2 °C 30.22in /  1023.2hPa East 0.9mph /  1.4km/h 1.0mph /  1.6km/h 62% 0.00in /  0mm 0.0 W/m2
06:09 54.1 °F /  12.3 °C 41.0 °F /  5 °C 30.21in /  1022.9hPa Calm   1.0mph /  1.6km/h 61% 0.00in /  0mm 7.0 W/m2
06:15 54.1 °F /  12.3 °C 41.0 °F /  5 °C 30.21in /  1022.9hPa Calm     61% 0.00in /  0mm 9.0 W/m2
06:22 54.1 °F /  12.3 °C 41.0 °F /  5 °C 30.22in /  1023.2hPa Calm     61% 0.00in /  0mm 12.0 W/m2
06:28 54.1 °F /  12.3 °C 41.4 °F /  5.2 °C 30.22in /  1023.2hPa Calm     62% 0.00in /  0mm 14.0 W/m2
06:34 54.3 °F /  12.4 °C 41.5 °F /  5.3 °C 30.22in /  1023.2hPa Calm     62% 0.00in /  0mm 16.0 W/m2
06:40 54.7 °F /  12.6 °C 41.9 °F /  5.5 °C 30.22in /  1023.2hPa SE 2.0mph /  3.2km/h 3.0mph /  4.8km/h 62% 0.00in /  0mm 19.0 W/m2
06:46 54.9 °F /  12.7 °C 42.1 °F /  5.6 °C 30.23in /  1023.6hPa East 0.9mph /  1.4km/h 3.0mph /  4.8km/h 62% 0.00in /  0mm 21.0 W/m2
06:52 55.2 °F /  12.9 °C 42.4 °F /  5.8 °C 30.23in /  1023.6hPa Calm     62% 0.00in /  0mm 23.0 W/m2
06:58 55.6 °F /  13.1 °C 42.8 °F /  6 °C 30.23in /  1023.6hPa Calm   1.0mph /  1.6km/h 62% 0.00in /  0mm 25.0 W/m2
07:05 56.1 °F /  13.4 °C 42.8 °F /  6 °C 30.23in /  1023.6hPa East 0.9mph /  1.4km/h 2.0mph /  3.2km/h 61% 0.00in /  0mm 26.0 W/m2
07:11 56.7 °F /  13.7 °C 43.3 °F /  6.3 °C 30.23in /  1023.6hPa ENE 0.9mph /  1.4km/h 3.0mph /  4.8km/h 61% 0.00in /  0mm 26.0 W/m2
07:17 57.4 °F /  14.1 °C 44.1 °F /  6.7 °C 30.23in /  1023.6hPa ENE 0.9mph /  1.4km/h 2.0mph /  3.2km/h 61% 0.00in /  0mm 28.0 W/m2
07:23 57.9 °F /  14.4 °C 44.6 °F /  7 °C 30.23in /  1023.6hPa Calm     61% 0.00in /  0mm 30.0 W/m2
07:29 58.5 °F /  14.7 °C 45.1 °F /  7.3 °C 30.24in /  1023.9hPa Calm     61% 0.00in /  0mm 30.0 W/m2
07:35 58.8 °F /  14.9 °C 45.9 °F /  7.7 °C 30.24in /  1023.9hPa Calm     62% 0.00in /  0mm 32.0 W/m2
07:41 59.7 °F /  15.4 °C 46.2 °F /  7.9 °C 30.24in /  1023.9hPa Calm     61% 0.00in /  0mm 32.0 W/m2
07:47 60.6 °F /  15.9 °C 46.2 °F /  7.9 °C 30.24in /  1023.9hPa Calm     59% 0.00in /  0mm 33.0 W/m2
07:54 61.5 °F /  16.4 °C 45.1 °F /  7.3 °C 30.24in /  1023.9hPa Calm     55% 0.00in /  0mm 33.0 W/m2
08:00 63.0 °F /  17.2 °C 44.1 °F /  6.7 °C 30.24in /  1023.9hPa Calm     50% 0.00in /  0mm 33.0 W/m2
08:06 64.0 °F /  17.8 °C 44.4 °F /  6.9 °C 30.24in /  1023.9hPa Calm   1.0mph /  1.6km/h 49% 0.00in /  0mm 35.0 W/m2
08:12 65.1 °F /  18.4 °C 45.0 °F /  7.2 °C 30.24in /  1023.9hPa Calm     48% 0.00in /  0mm 37.0 W/m2
08:18 66.4 °F /  19.1 °C 43.9 °F /  6.6 °C 30.25in /  1024.3hPa Calm   2.0mph /  3.2km/h 44% 0.00in /  0mm 37.0 W/m2
08:24 67.8 °F /  19.9 °C 43.3 °F /  6.3 °C 30.25in /  1024.3hPa NNW 2.0mph /  3.2km/h 5.0mph /  8km/h 41% 0.00in /  0mm 37.0 W/m2
08:30 69.3 °F /  20.7 °C 42.6 °F /  5.9 °C 30.25in /  1024.3hPa NNW 4.0mph /  6.4km/h 7.0mph /  11.3km/h 38% 0.00in /  0mm 39.0 W/m2
08:37 70.2 °F /  21.2 °C 43.3 °F /  6.3 °C 30.25in /  1024.3hPa NNE 4.0mph /  6.4km/h 6.0mph /  9.7km/h 38% 0.00in /  0mm 44.0 W/m2
08:43 71.1 °F /  21.7 °C 43.5 °F /  6.4 °C 30.26in /  1024.6hPa NE 4.9mph /  7.9km/h 7.0mph /  11.3km/h 37% 0.00in /  0mm 575.0 W/m2
08:49 72.0 °F /  22.2 °C 43.5 °F /  6.4 °C 30.26in /  1024.6hPa North 2.9mph /  4.7km/h 8.0mph /  12.9km/h 36% 0.00in /  0mm 592.0 W/m2
08:55 73.2 °F /  22.9 °C 43.9 °F /  6.6 °C 30.25in /  1024.3hPa NNW 0.9mph /  1.4km/h 9.0mph /  14.5km/h 35% 0.00in /  0mm 613.0 W/m2
09:01 74.1 °F /  23.4 °C 44.8 °F /  7.1 °C 30.25in /  1024.3hPa NNE 4.0mph /  6.4km/h 8.0mph /  12.9km/h 35% 0.00in /  0mm 635.0 W/m2
09:07 74.7 °F /  23.7 °C 44.4 °F /  6.9 °C 30.26in /  1024.6hPa NNE 2.9mph /  4.7km/h 4.0mph /  6.4km/h 34% 0.00in /  0mm 652.0 W/m2
09:13 75.0 °F /  23.9 °C 44.8 °F /  7.1 °C 30.25in /  1024.3hPa NNW 6.0mph /  9.7km/h 7.0mph /  11.3km/h 34% 0.00in /  0mm 671.0 W/m2
09:20 75.6 °F /  24.2 °C 45.1 °F /  7.3 °C 30.25in /  1024.3hPa East 2.0mph /  3.2km/h 8.0mph /  12.9km/h 34% 0.00in /  0mm 689.0 W/m2
09:26 76.3 °F /  24.6 °C 45.1 °F /  7.3 °C 30.25in /  1024.3hPa Calm   6.0mph /  9.7km/h 33% 0.00in /  0mm 707.0 W/m2
09:32 76.8 °F /  24.9 °C 45.5 °F /  7.5 °C 30.25in /  1024.3hPa North 4.0mph /  6.4km/h 8.0mph /  12.9km/h 33% 0.00in /  0mm 721.0 W/m2
09:38 77.2 °F /  25.1 °C 45.0 °F /  7.2 °C 30.25in /  1024.3hPa NNE 2.0mph /  3.2km/h 4.0mph /  6.4km/h 32% 0.00in /  0mm 737.0 W/m2
09:44 77.5 °F /  25.3 °C 45.3 °F /  7.4 °C 30.24in /  1023.9hPa Calm   2.0mph /  3.2km/h 32% 0.00in /  0mm 747.0 W/m2
09:50 77.9 °F /  25.5 °C 45.7 °F /  7.6 °C 30.24in /  1023.9hPa Calm   7.0mph /  11.3km/h 32% 0.00in /  0mm 759.0 W/m2
09:56 78.1 °F /  25.6 °C 45.0 °F /  7.2 °C 30.24in /  1023.9hPa NNW 6.9mph /  11.1km/h 13.0mph /  20.9km/h 31% 0.00in /  0mm 772.0 W/m2
10:03 78.3 °F /  25.7 °C 45.1 °F /  7.3 °C 30.24in /  1023.9hPa Calm   7.0mph /  11.3km/h 31% 0.00in /  0mm 784.0 W/m2
10:09 78.4 °F /  25.8 °C 44.4 °F /  6.9 °C 30.24in /  1023.9hPa NW 4.0mph /  6.4km/h 6.0mph /  9.7km/h 30% 0.00in /  0mm 796.0 W/m2
10:15 78.6 °F /  25.9 °C 43.7 °F /  6.5 °C 30.23in /  1023.6hPa NNE 4.9mph /  7.9km/h 8.0mph /  12.9km/h 29% 0.00in /  0mm 809.0 W/m2
10:21 78.8 °F /  26 °C 44.8 °F /  7.1 °C 30.23in /  1023.6hPa NNW 2.9mph /  4.7km/h 8.0mph /  12.9km/h 30% 0.00in /  0mm 817.0 W/m2
10:27 79.0 °F /  26.1 °C 45.0 °F /  7.2 °C 30.23in /  1023.6hPa NNE 8.9mph /  14.3km/h 9.0mph /  14.5km/h 30% 0.00in /  0mm 826.0 W/m2
10:33 79.0 °F /  26.1 °C 43.2 °F /  6.2 °C 30.23in /  1023.6hPa NNW 4.0mph /  6.4km/h 9.0mph /  14.5km/h 28% 0.00in /  0mm 838.0 W/m2
10:39 79.3 °F /  26.3 °C 44.2 °F /  6.8 °C 30.23in /  1023.6hPa West 2.0mph /  3.2km/h 10.0mph /  16.1km/h 29% 0.00in /  0mm 858.0 W/m2
10:53 79.7 °F /  26.5 °C 44.6 °F /  7 °C 30.22in /  1023.2hPa North 2.0mph /  3.2km/h 7.0mph /  11.3km/h 29% 0.00in /  0mm 895.0 W/m2
10:59 79.9 °F /  26.6 °C 43.0 °F /  6.1 °C 30.22in /  1023.2hPa NNE 2.9mph /  4.7km/h 12.0mph /  19.3km/h 27% 0.00in /  0mm 926.0 W/m2
11:04 79.5 °F /  26.4 °C 42.6 °F /  5.9 °C 30.22in /  1023.2hPa NNW 6.0mph /  9.7km/h 7.0mph /  11.3km/h 27% 0.00in /  0mm 953.0 W/m2
11:10 79.9 °F /  26.6 °C 43.9 °F /  6.6 °C 30.22in /  1023.2hPa NNW 6.0mph /  9.7km/h 7.0mph /  11.3km/h 28% 0.00in /  0mm 179.0 W/m2
11:16 80.1 °F /  26.7 °C 43.0 °F /  6.1 °C 30.21in /  1022.9hPa WSW 2.0mph /  3.2km/h 7.0mph /  11.3km/h 27% 0.00in /  0mm 967.0 W/m2
11:22 80.2 °F /  26.8 °C 44.2 °F /  6.8 °C 30.21in /  1022.9hPa NW 2.9mph /  4.7km/h 7.0mph /  11.3km/h 28% 0.00in /  0mm 970.0 W/m2
11:28 81.0 °F /  27.2 °C 43.9 °F /  6.6 °C 30.21in /  1022.9hPa North 6.9mph /  11.1km/h 9.0mph /  14.5km/h 27% 0.00in /  0mm 939.0 W/m2
11:34 81.1 °F /  27.3 °C 44.1 °F /  6.7 °C 30.20in /  1022.6hPa WNW 2.0mph /  3.2km/h 6.0mph /  9.7km/h 27% 0.00in /  0mm 965.0 W/m2
11:41 81.7 °F /  27.6 °C 44.4 °F /  6.9 °C 30.20in /  1022.6hPa North 4.0mph /  6.4km/h 8.0mph /  12.9km/h 27% 0.00in /  0mm 962.0 W/m2
11:47 82.0 °F /  27.8 °C 44.8 °F /  7.1 °C 30.20in /  1022.6hPa North 8.1mph /  13km/h 10.0mph /  16.1km/h 27% 0.00in /  0mm 967.0 W/m2
11:53 81.3 °F /  27.4 °C 44.1 °F /  6.7 °C 30.19in /  1022.2hPa Calm   5.0mph /  8km/h 27% 0.00in /  0mm 234.0 W/m2
11:59 80.8 °F /  27.1 °C 44.6 °F /  7 °C 30.19in /  1022.2hPa Calm   4.0mph /  6.4km/h 28% 0.00in /  0mm 311.0 W/m2
12:05 80.1 °F /  26.7 °C 45.0 °F /  7.2 °C 30.18in /  1021.9hPa NNW 2.9mph /  4.7km/h 4.0mph /  6.4km/h 29% 0.00in /  0mm 251.0 W/m2
12:11 79.3 °F /  26.3 °C 44.2 °F /  6.8 °C 30.18in /  1021.9hPa NW 4.9mph /  7.9km/h 9.0mph /  14.5km/h 29% 0.00in /  0mm 1116.0 W/m2
12:17 79.9 °F /  26.6 °C 44.8 °F /  7.1 °C 30.18in /  1021.9hPa NE 2.0mph /  3.2km/h 4.0mph /  6.4km/h 29% 0.00in /  0mm 932.0 W/m2
12:23 80.8 °F /  27.1 °C 43.7 °F /  6.5 °C 30.18in /  1021.9hPa NNE 4.0mph /  6.4km/h 12.0mph /  19.3km/h 27% 0.00in /  0mm 1069.0 W/m2
12:30 81.3 °F /  27.4 °C 44.1 °F /  6.7 °C 30.17in /  1021.6hPa NNE 4.0mph /  6.4km/h 12.0mph /  19.3km/h 27% 0.00in /  0mm 970.0 W/m2
12:36 81.3 °F /  27.4 °C 45.1 °F /  7.3 °C 30.17in /  1021.6hPa NNW 0.9mph /  1.4km/h 7.0mph /  11.3km/h 28% 0.00in /  0mm 919.0 W/m2
12:42 81.9 °F /  27.7 °C 44.6 °F /  7 °C 30.17in /  1021.6hPa NW 2.0mph /  3.2km/h 5.0mph /  8km/h 27% 0.00in /  0mm 919.0 W/m2
12:48 82.2 °F /  27.9 °C 45.0 °F /  7.2 °C 30.16in /  1021.2hPa Calm   5.0mph /  8km/h 27% 0.00in /  0mm 928.0 W/m2
12:54 82.6 °F /  28.1 °C 44.2 °F /  6.8 °C 30.16in /  1021.2hPa West 4.9mph /  7.9km/h 7.0mph /  11.3km/h 26% 0.00in /  0mm 893.0 W/m2
13:00 82.8 °F /  28.2 °C 44.4 °F /  6.9 °C 30.16in /  1021.2hPa WNW 0.9mph /  1.4km/h 6.0mph /  9.7km/h 26% 0.00in /  0mm 895.0 W/m2
13:06 83.5 °F /  28.6 °C 46.0 °F /  7.8 °C 30.16in /  1021.2hPa West 0.9mph /  1.4km/h 9.0mph /  14.5km/h 27% 0.00in /  0mm 932.0 W/m2
13:12 83.5 °F /  28.6 °C 45.0 °F /  7.2 °C 30.16in /  1021.2hPa Calm   7.0mph /  11.3km/h 26% 0.00in /  0mm 977.0 W/m2
13:19 83.7 °F /  28.7 °C 44.1 °F /  6.7 °C 30.16in /  1021.2hPa NW 2.9mph /  4.7km/h 5.0mph /  8km/h 25% 0.00in /  0mm 239.0 W/m2
13:25 82.8 °F /  28.2 °C 44.4 °F /  6.9 °C 30.15in /  1020.9hPa North 4.9mph /  7.9km/h 7.0mph /  11.3km/h 26% 0.00in /  0mm 227.0 W/m2
13:31 82.0 °F /  27.8 °C 44.8 °F /  7.1 °C 30.15in /  1020.9hPa Calm   7.0mph /  11.3km/h 27% 0.00in /  0mm 257.0 W/m2
13:37 82.2 °F /  27.9 °C 43.9 °F /  6.6 °C 30.14in /  1020.5hPa West 0.9mph /  1.4km/h 6.0mph /  9.7km/h 26% 0.00in /  0mm 942.0 W/m2
13:43 82.9 °F /  28.3 °C 43.5 °F /  6.4 °C 30.15in /  1020.9hPa Calm   4.0mph /  6.4km/h 25% 0.00in /  0mm 888.0 W/m2
13:49 83.8 °F /  28.8 °C 43.2 °F /  6.2 °C 30.15in /  1020.9hPa NW 2.9mph /  4.7km/h 13.0mph /  20.9km/h 24% 0.00in /  0mm 860.0 W/m2
13:55 84.0 °F /  28.9 °C 43.3 °F /  6.3 °C 30.14in /  1020.5hPa Calm   7.0mph /  11.3km/h 24% 0.00in /  0mm 858.0 W/m2
14:02 83.7 °F /  28.7 °C 44.1 °F /  6.7 °C 30.14in /  1020.5hPa WNW 2.9mph /  4.7km/h 8.0mph /  12.9km/h 25% 0.00in /  0mm 759.0 W/m2
14:08 83.8 °F /  28.8 °C 43.2 °F /  6.2 °C 30.14in /  1020.5hPa NNW 8.9mph /  14.3km/h 10.0mph /  16.1km/h 24% 0.00in /  0mm 786.0 W/m2
14:14 83.7 °F /  28.7 °C 41.9 °F /  5.5 °C 30.14in /  1020.5hPa NNW 6.0mph /  9.7km/h 13.0mph /  20.9km/h 23% 0.00in /  0mm 759.0 W/m2
14:20 83.5 °F /  28.6 °C 43.9 °F /  6.6 °C 30.14in /  1020.5hPa WSW 4.9mph /  7.9km/h 8.0mph /  12.9km/h 25% 0.00in /  0mm 786.0 W/m2
14:26 83.7 °F /  28.7 °C 43.0 °F /  6.1 °C 30.14in /  1020.5hPa Calm   6.0mph /  9.7km/h 24% 0.00in /  0mm 819.0 W/m2
14:32 83.8 °F /  28.8 °C 42.1 °F /  5.6 °C 30.14in /  1020.5hPa NW 2.0mph /  3.2km/h 7.0mph /  11.3km/h 23% 0.00in /  0mm 775.0 W/m2
14:38 83.7 °F /  28.7 °C 43.0 °F /  6.1 °C 30.14in /  1020.5hPa Calm   6.0mph /  9.7km/h 24% 0.00in /  0mm 742.0 W/m2
14:44 83.7 °F /  28.7 °C 43.0 °F /  6.1 °C 30.13in /  1020.2hPa WNW 2.0mph /  3.2km/h 2.0mph /  3.2km/h 24% 0.00in /  0mm 765.0 W/m2
14:51 84.0 °F /  28.9 °C 43.3 °F /  6.3 °C 30.13in /  1020.2hPa Calm   3.0mph /  4.8km/h 24% 0.00in /  0mm 763.0 W/m2
14:57 84.6 °F /  29.2 °C 42.6 °F /  5.9 °C 30.13in /  1020.2hPa NNE 4.9mph /  7.9km/h 7.0mph /  11.3km/h 23% 0.00in /  0mm 673.0 W/m2
15:03 84.7 °F /  29.3 °C 42.8 °F /  6 °C 30.13in /  1020.2hPa NNW 6.9mph /  11.1km/h 7.0mph /  11.3km/h 23% 0.00in /  0mm 134.0 W/m2
15:09 83.8 °F /  28.8 °C 41.0 °F /  5 °C 30.13in /  1020.2hPa NNW 0.9mph /  1.4km/h 5.0mph /  8km/h 22% 0.00in /  0mm 118.0 W/m2
15:15 82.8 °F /  28.2 °C 41.2 °F /  5.1 °C 30.13in /  1020.2hPa NNE 4.9mph /  7.9km/h 6.0mph /  9.7km/h 23% 0.00in /  0mm 114.0 W/m2
15:21 81.9 °F /  27.7 °C 41.5 °F /  5.3 °C 30.13in /  1020.2hPa North 0.9mph /  1.4km/h 4.0mph /  6.4km/h 24% 0.00in /  0mm 125.0 W/m2
15:27 81.3 °F /  27.4 °C 43.2 °F /  6.2 °C 30.13in /  1020.2hPa Calm   1.0mph /  1.6km/h 26% 0.00in /  0mm 167.0 W/m2
15:33 81.9 °F /  27.7 °C 42.6 °F /  5.9 °C 30.13in /  1020.2hPa Calm   1.0mph /  1.6km/h 25% 0.00in /  0mm 580.0 W/m2
15:40 82.6 °F /  28.1 °C 42.1 °F /  5.6 °C 30.13in /  1020.2hPa NW 2.0mph /  3.2km/h 10.0mph /  16.1km/h 24% 0.00in /  0mm 155.0 W/m2
15:46 82.0 °F /  27.8 °C 41.7 °F /  5.4 °C 30.13in /  1020.2hPa NNE 2.0mph /  3.2km/h 9.0mph /  14.5km/h 24% 0.00in /  0mm 216.0 W/m2
15:52 81.5 °F /  27.5 °C 42.3 °F /  5.7 °C 30.13in /  1020.2hPa North 0.9mph /  1.4km/h 5.0mph /  8km/h 25% 0.00in /  0mm 304.0 W/m2
15:58 81.7 °F /  27.6 °C 41.4 °F /  5.2 °C 30.12in /  1019.9hPa ESE 4.0mph /  6.4km/h 7.0mph /  11.3km/h 24% 0.00in /  0mm 410.0 W/m2
16:04 82.0 °F /  27.8 °C 40.6 °F /  4.8 °C 30.13in /  1020.2hPa WNW 2.9mph /  4.7km/h 6.0mph /  9.7km/h 23% 0.00in /  0mm 380.0 W/m2
16:10 81.9 °F /  27.7 °C 41.5 °F /  5.3 °C 30.12in /  1019.9hPa Calm   1.0mph /  1.6km/h 24% 0.00in /  0mm 381.0 W/m2
16:16 81.9 °F /  27.7 °C 41.5 °F /  5.3 °C 30.13in /  1020.2hPa NW 0.9mph /  1.4km/h 3.0mph /  4.8km/h 24% 0.00in /  0mm 111.0 W/m2
16:23 81.7 °F /  27.6 °C 40.3 °F /  4.6 °C 30.13in /  1020.2hPa North 4.9mph /  7.9km/h 7.0mph /  11.3km/h 23% 0.00in /  0mm 285.0 W/m2
16:29 81.3 °F /  27.4 °C 42.1 °F /  5.6 °C 30.13in /  1020.2hPa Calm   4.0mph /  6.4km/h 25% 0.00in /  0mm 123.0 W/m2
16:35 81.1 °F /  27.3 °C 41.0 °F /  5 °C 30.13in /  1020.2hPa Calm   4.0mph /  6.4km/h 24% 0.00in /  0mm 53.0 W/m2
16:41 80.8 °F /  27.1 °C 41.7 °F /  5.4 °C 30.13in /  1020.2hPa West 0.9mph /  1.4km/h 1.0mph /  1.6km/h 25% 0.00in /  0mm 44.0 W/m2
16:47 80.2 °F /  26.8 °C 42.3 °F /  5.7 °C 30.13in /  1020.2hPa Calm   1.0mph /  1.6km/h 26% 0.00in /  0mm 37.0 W/m2
16:53 79.5 °F /  26.4 °C 42.6 °F /  5.9 °C 30.14in /  1020.5hPa Calm   2.0mph /  3.2km/h 27% 0.00in /  0mm 33.0 W/m2
16:59 79.2 °F /  26.2 °C 41.4 °F /  5.2 °C 30.14in /  1020.5hPa NNW 4.0mph /  6.4km/h 4.0mph /  6.4km/h 26% 0.00in /  0mm 28.0 W/m2
17:05 78.6 °F /  25.9 °C 40.8 °F /  4.9 °C 30.14in /  1020.5hPa Calm   1.0mph /  1.6km/h 26% 0.00in /  0mm 33.0 W/m2
17:11 78.1 °F /  25.6 °C 41.4 °F /  5.2 °C 30.14in /  1020.5hPa Calm   1.0mph /  1.6km/h 27% 0.00in /  0mm 26.0 W/m2
17:18 77.7 °F /  25.4 °C 40.1 °F /  4.5 °C 30.14in /  1020.5hPa Calm   1.0mph /  1.6km/h 26% 0.00in /  0mm 23.0 W/m2
17:24 77.5 °F /  25.3 °C 39.9 °F /  4.4 °C 30.14in /  1020.5hPa Calm   1.0mph /  1.6km/h 26% 0.00in /  0mm 19.0 W/m2
17:30 77.2 °F /  25.1 °C 41.5 °F /  5.3 °C 30.15in /  1020.9hPa Calm     28% 0.00in /  0mm 14.0 W/m2
17:36 76.6 °F /  24.8 °C 39.2 °F /  4 °C 30.15in /  1020.9hPa NW 0.9mph /  1.4km/h 2.0mph /  3.2km/h 26% 0.00in /  0mm 9.0 W/m2
17:42 76.3 °F /  24.6 °C 39.9 °F /  4.4 °C 30.15in /  1020.9hPa Calm     27% 0.00in /  0mm 5.0 W/m2
17:48 75.9 °F /  24.4 °C 39.6 °F /  4.2 °C 30.16in /  1021.2hPa Calm     27% 0.00in /  0mm 0.0 W/m2
17:54 75.6 °F /  24.2 °C 40.1 °F /  4.5 °C 30.16in /  1021.2hPa Calm   1.0mph /  1.6km/h 28% 0.00in /  0mm 0.0 W/m2
18:01 75.0 °F /  23.9 °C 40.6 °F /  4.8 °C 30.16in /  1021.2hPa Calm     29% 0.00in /  0mm 0.0 W/m2
18:07 74.7 °F /  23.7 °C 40.3 °F /  4.6 °C 30.16in /  1021.2hPa Calm     29% 0.00in /  0mm 0.0 W/m2
18:13 73.9 °F /  23.3 °C 40.5 °F /  4.7 °C 30.16in /  1021.2hPa Calm     30% 0.00in /  0mm 0.0 W/m2
18:19 73.4 °F /  23 °C 41.0 °F /  5 °C 30.16in /  1021.2hPa Calm     31% 0.00in /  0mm 0.0 W/m2
18:25 72.9 °F /  22.7 °C 41.4 °F /  5.2 °C 30.16in /  1021.2hPa Calm     32% 0.00in /  0mm 0.0 W/m2
18:31 72.3 °F /  22.4 °C 40.8 °F /  4.9 °C 30.16in /  1021.2hPa Calm     32% 0.00in /  0mm 0.0 W/m2
18:37 72.0 °F /  22.2 °C 42.1 °F /  5.6 °C 30.17in /  1021.6hPa Calm     34% 0.00in /  0mm 0.0 W/m2
18:43 71.2 °F /  21.8 °C 41.4 °F /  5.2 °C 30.17in /  1021.6hPa Calm     34% 0.00in /  0mm 0.0 W/m2
18:50 70.9 °F /  21.6 °C 41.2 °F /  5.1 °C 30.17in /  1021.6hPa Calm     34% 0.00in /  0mm 0.0 W/m2
18:56 70.2 °F /  21.2 °C 40.5 °F /  4.7 °C 30.17in /  1021.6hPa Calm     34% 0.00in /  0mm 0.0 W/m2
19:02 69.6 °F /  20.9 °C 39.9 °F /  4.4 °C 30.17in /  1021.6hPa Calm     34% 0.00in /  0mm 0.0 W/m2
19:08 69.1 °F /  20.6 °C 41.0 °F /  5 °C 30.17in /  1021.6hPa Calm     36% 0.00in /  0mm 0.0 W/m2
19:14 68.5 °F /  20.3 °C 40.5 °F /  4.7 °C 30.18in /  1021.9hPa Calm     36% 0.00in /  0mm 0.0 W/m2
19:20 67.8 °F /  19.9 °C 40.6 °F /  4.8 °C 30.18in /  1021.9hPa Calm     37% 0.00in /  0mm 0.0 W/m2
19:26 67.5 °F /  19.7 °C 40.3 °F /  4.6 °C 30.18in /  1021.9hPa Calm   2.0mph /  3.2km/h 37% 0.00in /  0mm 0.0 W/m2
19:33 67.3 °F /  19.6 °C 40.8 °F /  4.9 °C 30.18in /  1021.9hPa Calm     38% 0.00in /  0mm 0.0 W/m2
19:39 66.9 °F /  19.4 °C 41.2 °F /  5.1 °C 30.18in /  1021.9hPa Calm     39% 0.00in /  0mm 0.0 W/m2
19:45 66.7 °F /  19.3 °C 41.0 °F /  5 °C 30.18in /  1021.9hPa Calm     39% 0.00in /  0mm 0.0 W/m2
19:51 66.4 °F /  19.1 °C 40.6 °F /  4.8 °C 30.18in /  1021.9hPa Calm     39% 0.00in /  0mm 0.0 W/m2
19:57 66.0 °F /  18.9 °C 41.0 °F /  5 °C 30.18in /  1021.9hPa Calm   1.0mph /  1.6km/h 40% 0.00in /  0mm 0.0 W/m2
20:03 65.7 °F /  18.7 °C 40.6 °F /  4.8 °C 30.18in /  1021.9hPa Calm     40% 0.00in /  0mm 0.0 W/m2
20:09 65.5 °F /  18.6 °C 41.2 °F /  5.1 °C 30.19in /  1022.2hPa Calm   1.0mph /  1.6km/h 41% 0.00in /  0mm 0.0 W/m2
20:15 65.1 °F /  18.4 °C 40.8 °F /  4.9 °C 30.19in /  1022.2hPa Calm   1.0mph /  1.6km/h 41% 0.00in /  0mm 0.0 W/m2
20:21 64.9 °F /  18.3 °C 40.6 °F /  4.8 °C 30.19in /  1022.2hPa Calm   1.0mph /  1.6km/h 41% 0.00in /  0mm 0.0 W/m2
20:27 64.8 °F /  18.2 °C 40.5 °F /  4.7 °C 30.20in /  1022.6hPa ESE 0.9mph /  1.4km/h 2.0mph /  3.2km/h 41% 0.00in /  0mm 0.0 W/m2
20:34 64.8 °F /  18.2 °C 40.5 °F /  4.7 °C 30.20in /  1022.6hPa Calm   1.0mph /  1.6km/h 41% 0.00in /  0mm 0.0 W/m2
20:40 64.4 °F /  18 °C 40.1 °F /  4.5 °C 30.20in /  1022.6hPa Calm   1.0mph /  1.6km/h 41% 0.00in /  0mm 0.0 W/m2
20:46 64.2 °F /  17.9 °C 40.6 °F /  4.8 °C 30.20in /  1022.6hPa Calm   2.0mph /  3.2km/h 42% 0.00in /  0mm 0.0 W/m2
20:52 64.2 °F /  17.9 °C 40.6 °F /  4.8 °C 30.20in /  1022.6hPa Calm   2.0mph /  3.2km/h 42% 0.00in /  0mm 0.0 W/m2
20:58 64.0 °F /  17.8 °C 40.5 °F /  4.7 °C 30.20in /  1022.6hPa Calm   1.0mph /  1.6km/h 42% 0.00in /  0mm 0.0 W/m2
21:04 63.9 °F /  17.7 °C 40.3 °F /  4.6 °C 30.20in /  1022.6hPa Calm   1.0mph /  1.6km/h 42% 0.00in /  0mm 0.0 W/m2
21:10 63.9 °F /  17.7 °C 40.3 °F /  4.6 °C 30.20in /  1022.6hPa Calm     42% 0.00in /  0mm 0.0 W/m2
21:16 63.5 °F /  17.5 °C 40.6 °F /  4.8 °C 30.20in /  1022.6hPa Calm   2.0mph /  3.2km/h 43% 0.00in /  0mm 0.0 W/m2
21:22 63.1 °F /  17.3 °C 40.3 °F /  4.6 °C 30.20in /  1022.6hPa East 0.9mph /  1.4km/h 4.0mph /  6.4km/h 43% 0.00in /  0mm 0.0 W/m2
21:40 63.0 °F /  17.2 °C 40.6 °F /  4.8 °C 30.19in /  1022.2hPa Calm     44% 0.00in /  0mm 0.0 W/m2
21:47 62.6 °F /  17 °C 41.0 °F /  5 °C 30.20in /  1022.6hPa Calm     45% 0.00in /  0mm 0.0 W/m2
21:53 62.2 °F /  16.8 °C 40.1 °F /  4.5 °C 30.20in /  1022.6hPa Calm   1.0mph /  1.6km/h 44% 0.00in /  0mm 0.0 W/m2
21:59 62.1 °F /  16.7 °C 40.5 °F /  4.7 °C 30.20in /  1022.6hPa Calm     45% 0.00in /  0mm 0.0 W/m2
22:05 62.1 °F /  16.7 °C 40.5 °F /  4.7 °C 30.22in /  1023.2hPa Calm   9.0mph /  14.5km/h 45% 0.00in /  0mm 0.0 W/m2
22:11 62.8 °F /  17.1 °C 40.5 °F /  4.7 °C 30.22in /  1023.2hPa Calm   2.0mph /  3.2km/h 44% 0.00in /  0mm 0.0 W/m2
22:17 63.1 °F /  17.3 °C 40.8 °F /  4.9 °C 30.22in /  1023.2hPa Calm     44% 0.00in /  0mm 0.0 W/m2
22:24 63.3 °F /  17.4 °C 41.0 °F /  5 °C 30.22in /  1023.2hPa Calm   1.0mph /  1.6km/h 44% 0.00in /  0mm 0.0 W/m2
22:30 63.9 °F /  17.7 °C 41.0 °F /  5 °C 30.22in /  1023.2hPa Calm   4.0mph /  6.4km/h 43% 0.00in /  0mm 0.0 W/m2
22:36 64.2 °F /  17.9 °C 40.6 °F /  4.8 °C 30.22in /  1023.2hPa NNW 0.9mph /  1.4km/h 1.0mph /  1.6km/h 42% 0.00in /  0mm 0.0 W/m2
22:42 64.6 °F /  18.1 °C 40.3 °F /  4.6 °C 30.22in /  1023.2hPa Calm   3.0mph /  4.8km/h 41% 0.00in /  0mm 0.0 W/m2
22:48 64.8 °F /  18.2 °C 40.5 °F /  4.7 °C 30.23in /  1023.6hPa Calm     41% 0.00in /  0mm 0.0 W/m2
22:54 64.8 °F /  18.2 °C 40.5 °F /  4.7 °C 30.23in /  1023.6hPa Calm   1.0mph /  1.6km/h 41% 0.00in /  0mm 0.0 W/m2
23:00 64.6 °F /  18.1 °C 41.0 °F /  5 °C 30.24in /  1023.9hPa Calm     42% 0.00in /  0mm 0.0 W/m2
23:06 64.0 °F /  17.8 °C 40.5 °F /  4.7 °C 30.24in /  1023.9hPa Calm   1.0mph /  1.6km/h 42% 0.00in /  0mm 0.0 W/m2
23:12 63.9 °F /  17.7 °C 40.3 °F /  4.6 °C 30.24in /  1023.9hPa Calm     42% 0.00in /  0mm 0.0 W/m2
23:19 63.7 °F /  17.6 °C 40.8 °F /  4.9 °C 30.25in /  1024.3hPa Calm   2.0mph /  3.2km/h 43% 0.00in /  0mm 0.0 W/m2
23:25 63.3 °F /  17.4 °C 41.0 °F /  5 °C 30.25in /  1024.3hPa Calm   1.0mph /  1.6km/h 44% 0.00in /  0mm 0.0 W/m2
23:31 63.1 °F /  17.3 °C 40.8 °F /  4.9 °C 30.25in /  1024.3hPa Calm   1.0mph /  1.6km/h 44% 0.00in /  0mm 0.0 W/m2
23:37 63.0 °F /  17.2 °C 40.6 °F /  4.8 °C 30.25in /  1024.3hPa Calm   1.0mph /  1.6km/h 44% 0.00in /  0mm 0.0 W/m2
23:43 62.8 °F /  17.1 °C 40.5 °F /  4.7 °C 30.25in /  1024.3hPa East 0.9mph /  1.4km/h 2.0mph /  3.2km/h 44% 0.00in /  0mm 0.0 W/m2
23:49 62.6 °F /  17 °C 41.0 °F /  5 °C 30.24in /  1023.9hPa Calm     45% 0.00in /  0mm 0.0 W/m2
23:55 62.4 °F /  16.9 °C 41.4 °F /  5.2 °C 30.24in /  1023.9hPa Calm     46% 0.00in /  0mm 0.0 W/m2
Olympia, Windhoek, Namibia
Compliments of Weather Underground - 3 mb